Site contains unofficial IBTrACS data. Visit the IBTrACS Website to access archived data.

1940 Tropical Cyclone NOT_NAMED (1940082S14152)


IBTrACS version v04r00. Visit IBTrACS website for data access.
Please direct all questions to the IBTrACS Q and A forum

Storm track - Intensity - Wind Radii - Intensity Data - Source Data - All data

Summary Information

Storm ID 1940082S14152
Start Mar 21 23Z
Landfall Mar 23 09Z, Mar 24 03Z, Mar 25 09Z, Mar 26 12Z, Mar 27 21Z, Mar 28 09Z
Max Intensity 35 kt (Mar 22 00Z), 972 mb (Mar 28 11Z)
End Mar 29 01Z
ATCF IDs
Track status Best track data.

Storm track plot

Map of storm track

Intensity plots

Map of storm track

Radial wind information

No radial wind information for this storm


Position and Intensity Table

BASIN ISO_TIME_________ NATURE LAT LON WMO PRES BOM PRES DS824 WIND DS824 PRES
degrees north degrees east mb mb kts mb
SP 1940-03-21 23:00:00 NR -14.00 151.90 998 998
SP 1940-03-22 00:00:00 TS -13.97 151.76 35 998
SP 03:00:00 TS -13.88 151.31
SP 06:00:00 TS -13.79 150.84
SP 09:00:00 TS -13.73 150.36
SP 11:00:00 TS -13.69 150.03
SP 12:00:00 TS -13.67 149.87
SP 15:00:00 TS -13.64 149.33
SP 18:00:00 TS -13.64 148.70
SP 21:00:00 TS -13.67 147.92
SP 23:00:00 TS -13.72 147.29 999 999
SP 1940-03-23 00:00:00 TS -13.75 146.93
SP 03:00:00 TS -13.87 145.71
SP 06:00:00 TS -13.99 144.35
SP 07:00:00 TS -14.04 143.88
SP 09:00:00 TS -14.12 142.94
SP 11:00:00 TS -14.20 142.00
SP 12:00:00 TS -14.25 141.53
SP 15:00:00 TS -14.44 140.07
SP 18:00:00 TS -14.63 138.63
SP 21:00:00 TS -14.79 137.33
SP 23:00:00 TS -14.79 136.52
SP 23:30:00 TS -14.74 136.32 996 996
SP 1940-03-24 00:00:00 TS -14.70 136.14
SP 01:30:00 TS -14.66 135.73
SP 03:00:00 TS -14.65 135.36
SI 06:00:00 TS -14.66 134.66
SI 09:00:00 TS -14.67 134.00
SI 11:00:00 TS -14.68 133.56
SI 12:00:00 TS -14.69 133.34
SI 15:00:00 TS -14.72 132.68
SI 18:00:00 TS -14.76 131.94
SI 21:00:00 TS -14.83 131.19
SI 23:00:00 TS -14.86 130.71
SI 23:30:00 TS -14.87 130.50 1000 1000
SI 1940-03-25 00:00:00 TS -14.83 130.45 30 1000
SI 03:00:00 NR -14.83 129.97
SI 06:00:00 NR -14.90 129.47
SI 09:00:00 NR -14.96 129.00
SI 11:00:00 NR -15.00 128.71
SI 12:00:00 NR -15.02 128.56
SI 15:00:00 NR -15.08 128.15
SI 18:00:00 NR -15.14 127.75
SI 21:00:00 NR -15.19 127.36
SI 23:00:00 NR -15.21 127.10
SI 1940-03-26 00:00:00 NR -15.22 126.97
SI 01:00:00 NR -15.23 126.84
SI 03:00:00 NR -15.24 126.57
SI 06:00:00 NR -15.24 126.15
SI 09:00:00 NR -15.22 125.74
SI 11:00:00 NR -15.20 125.45
SI 12:00:00 NR -15.18 125.28
SI 15:00:00 NR -15.11 124.78
SI 17:00:00 NR -15.06 124.44
SI 18:00:00 NR -15.04 124.27
SI 21:00:00 NR -15.00 123.79
SI 23:00:00 NR -15.02 123.52
SI 1940-03-27 00:00:00 TS -15.07 123.49
SI 01:00:00 TS -15.13 123.46
SI 03:00:00 TS -15.27 123.34
SI 06:00:00 TS -15.51 123.17
SI 09:00:00 TS -15.79 123.00
SI 11:00:00 TS -15.98 122.91
SI 12:00:00 TS -16.07 122.86
SI 14:00:00 TS -16.25 122.77 992 992
SI 15:00:00 TS -16.33 122.73 991
SI 18:00:00 TS -16.59 122.63 990
SI 21:00:00 TS -16.88 122.54 989
SI 23:00:00 TS -17.11 122.48 989
SI 1940-03-28 00:00:00 TS -17.23 122.46 988
SI 01:00:00 TS -17.36 122.43 988
SI 03:00:00 TS -17.65 122.38 988 988
SI 06:00:00 TS -18.07 122.29 982
SI 09:00:00 TS -18.50 122.20 976
SI 11:00:00 TS -18.79 122.14 972 972
SI 12:00:00 TS -18.93 122.12
SI 15:00:00 TS -19.38 122.07
SI 18:00:00 TS -19.82 122.02
SI 21:00:00 TS -20.27 122.00
SI 23:00:00 TS -20.58 122.02
SI 1940-03-29 00:00:00 TS -20.72 122.06
SI 01:00:00 NR -20.90 122.10

Source Information

Agency Information
USA
TOKYO
CMA
HKO
NEWDELHI
REUNION
BOM IDCKMSTM0S.csv:Line=1043:unnamed
NADI
WELLINGTON
DS824 aus_area.dat:104:NOT NAMED
TD9636 cons_worldwide_trop_cyclone_18710101-19891231-006:Line=2367
TD9635
NEUMANN
MLC

All available IBTrACS Data

SEASON BASIN SUBBASIN ISO_TIME_________ NATURE LAT LON WMO PRES WMO AGENCY DIST2LAND LANDFALL IFLAG USA SSHS BOM LAT BOM LON BOM PRES BOM PRES_METHOD DS824 LAT DS824 LON DS824 STAGE DS824 WIND DS824 PRES TD9636 LAT TD9636 LON TD9636 STAGE STORM SPEED STORM DIR
Year degrees north degrees east mb km km 1 degrees north degrees east mb degrees north degrees east kts mb degrees north degrees east kts degrees
1940 SP EA 1940-03-21 23:00:00 NR -14.00 151.90 998 bom 402 399 ______O___O___ -1 -14.00 152.00 998 -14.00 151.80 7 8 282
1940 SP EA 1940-03-22 00:00:00 TS -13.97 151.76 399 371 ______P__OP___ -1 -13.94 151.92 -14.00 151.80 TC 35 998 -13.98 151.58 7 9 282
1940 SP EA 03:00:00 TS -13.88 151.31 371 351 ______P__PP___ -1 -13.77 151.67 -13.95 151.31 TC -13.93 150.94 7 9 281
1940 SP EA 06:00:00 TS -13.79 150.84 349 335 ______P__PP___ -1 -13.62 151.38 -13.89 150.80 TC -13.88 150.34 7 9 279
1940 SP EA 09:00:00 TS -13.73 150.36 335 335 ______P__PP___ -1 -13.49 151.02 -13.85 150.26 TC -13.83 149.80 7 10 278
1940 SP EA 11:00:00 TS -13.69 150.03 336 336 ______P__PO___ -1 -13.43 150.73 -13.83 149.87 TC -13.80 149.50 7 10 277
1940 SP EA 12:00:00 TS -13.67 149.87 337 331 ______P__PP___ -1 -13.40 150.56 -13.82 149.67 TC -13.78 149.37 7 10 274
1940 SP EA 15:00:00 TS -13.64 149.33 339 339 ______P__PP___ -1 -13.37 149.97 -13.81 149.02 TC -13.74 149.00 7 11 272
1940 SP EA 18:00:00 TS -13.64 148.70 360 325 ______P__PP___ -1 -13.39 149.21 -13.81 148.30 TC -13.71 148.60 7 14 268
1940 SP EA 21:00:00 TS -13.67 147.92 315 260 ______P__PP___ -1 -13.49 148.26 -13.84 147.48 TC -13.69 148.03 7 17 266
1940 SP EA 23:00:00 TS -13.72 147.29 999 bom 260 233 ______O__PO___ -1 -13.60 147.50 999 -13.87 146.87 TC -13.70 147.50 7 19 265
1940 SP EA 1940-03-23 00:00:00 TS -13.75 146.93 218 129 ______P__PP___ -1 -13.67 147.08 -13.90 146.55 TC -13.70 147.15 7 23 265
1940 SP EA 03:00:00 TS -13.87 145.71 124 33 ______P__PP___ -1 -13.91 145.71 -13.98 145.50 TC -13.71 145.92 7 25 265
1940 SP EA 06:00:00 TS -13.99 144.35 33 32 ______P__OP___ -1 -14.14 144.27 -14.10 144.30 TC -13.74 144.47 7 27 264
1940 SP EA 07:00:00 TS -14.04 143.88 bom 21 0 ______O__PP___ -1 -14.20 143.80 -14.15 143.87 TC -13.76 143.96 7 27 265
1940 SP EA 09:00:00 TS -14.12 142.94 0 0 ______P__PP___ -1 -14.29 142.92 -14.25 142.97 TC -13.82 142.93 7 27 265
1940 SP EA 11:00:00 TS -14.20 142.00 0 0 ______P__PO___ -1 -14.36 142.04 -14.35 142.05 TC -13.90 141.90 7 27 264
1940 SP EA 12:00:00 TS -14.25 141.53 bom 10 10 ______O__OP___ -1 -14.40 141.60 -14.40 141.60 TC -13.96 141.39 7 28 263
1940 SP EA 15:00:00 TS -14.44 140.07 151 151 ______P__PP___ -1 -14.60 140.04 -14.53 140.32 TC -14.20 139.84 7 28 262
1940 SP EA 18:00:00 TS -14.63 138.63 175 70 ______P__PP___ -1 -14.80 138.44 -14.65 139.10 TC -14.45 138.35 7 27 263
1940 SP EA 21:00:00 TS -14.79 137.33 64 55 ______P__PP___ -1 -14.92 137.01 -14.76 137.94 TC -14.69 137.03 7 25 266
1940 SP EA 23:00:00 TS -14.79 136.52 57 57 ______P__PO___ -1 -14.91 136.25 -14.82 137.20 TC -14.80 136.30 7 23 273
1940 SP EA 23:30:00 TS -14.74 136.32 996 bom 55 55 ______O__PP___ -1 -14.90 136.10 996 -14.84 137.02 TC -14.82 136.15 7 23 283
1940 SP EA 1940-03-24 00:00:00 TS -14.70 136.14 58 31 ______P__PP___ -1 -14.88 135.96 -14.85 136.84 TC -14.83 136.01 7 17 278
1940 SP EA 01:30:00 TS -14.66 135.73 bom 21 0 ______O__PP___ -1 -14.80 135.60 -14.90 136.31 TC -14.86 135.65 7 15 273
1940 SP EA 03:00:00 TS -14.65 135.36 0 0 ______P__PP___ -1 -14.75 135.22 -14.94 135.79 TC -14.88 135.35 7 14 270
1940 SI WA 06:00:00 TS -14.66 134.66 0 0 ______P__PP___ -1 -14.71 134.42 -15.02 134.80 TC -14.88 134.90 7 13 269
1940 SI WA 09:00:00 TS -14.67 134.00 0 0 ______P__PP___ -1 -14.74 133.61 -15.08 133.87 TC -14.84 134.54 7 13 269
1940 SI WA 11:00:00 TS -14.68 133.56 0 0 ______P__PO___ -1 -14.80 133.07 -15.12 133.28 TC -14.80 134.30 7 13 268
1940 SI WA 12:00:00 TS -14.69 133.34 0 0 ______P__PP___ -1 -14.83 132.80 -15.14 132.99 TC -14.78 134.16 7 13 267
1940 SI WA 15:00:00 TS -14.72 132.68 0 0 ______P__PP___ -1 -14.95 132.01 -15.19 132.16 TC -14.71 133.70 7 14 267
1940 SI WA 18:00:00 TS -14.76 131.94 0 0 ______P__PP___ -1 -15.08 131.24 -15.24 131.39 TC -14.64 133.17 7 14 266
1940 SI WA 21:00:00 TS -14.83 131.19 0 0 ______P__PP___ -1 -15.21 130.54 -15.27 130.67 TC -14.56 132.59 7 14 265
1940 SI WA 23:00:00 TS -14.86 130.71 0 0 ______P__PO___ -1 -15.28 130.10 -15.29 130.22 TC -14.50 132.20 7 16 267
1940 SI WA 23:30:00 TS -14.87 130.50 1000 bom 0 0 ______O__P____ -1 -15.30 130.00 1000 -15.30 130.11 TC 7 15 277
1940 SI WA 1940-03-25 00:00:00 TS -14.83 130.45 0 0 ______P__O____ -1 -15.30 129.91 -15.30 130.00 TC 30 1000 7 9 274
1940 SI WA 03:00:00 NR -14.83 129.97 0 0 ______P__P____ -1 -15.32 129.39 -15.27 129.33 TC 7 10 266
1940 SI WA 06:00:00 NR -14.90 129.47 11 0 ______P__P____ -1 -15.32 128.94 -15.23 128.72 TC 7 9 262
1940 SI WA 09:00:00 NR -14.96 129.00 0 0 ______P__P____ -1 -15.32 128.55 -15.18 128.17 TC 7 9 262
1940 SI WA 11:00:00 NR -15.00 128.71 0 0 ______P__P____ -1 -15.31 128.31 -15.14 127.83 TC 9 262
1940 SI WA 12:00:00 NR -15.02 128.56 0 0 ______P__P____ -1 -15.30 128.20 -15.12 127.67 TC 8 261
1940 SI WA 15:00:00 NR -15.08 128.15 0 0 ______P__P____ -1 -15.28 127.88 -15.06 127.23 TC 8 262
1940 SI WA 18:00:00 NR -15.14 127.75 0 0 ______P__P____ -1 -15.26 127.58 -15.00 126.82 TC 8 262
1940 SI WA 21:00:00 NR -15.19 127.36 0 0 ______P__P____ -1 -15.23 127.29 -14.94 126.45 TC 8 264
1940 SI WA 23:00:00 NR -15.21 127.10 0 0 ______P__P____ -1 -15.22 127.10 -14.91 126.23 TC 8 265
1940 SI WA 1940-03-26 00:00:00 NR -15.22 126.97 0 0 ______P__P____ -1 -15.21 127.00 -14.89 126.12 TC 8 266
1940 SI WA 01:00:00 NR -15.23 126.84 bom 0 0 ______O__P____ -1 -15.20 126.90 -14.88 126.02 TC 8 267
1940 SI WA 03:00:00 NR -15.24 126.57 0 0 ______P__P____ -1 -15.18 126.68 -14.85 125.82 TC 8 269
1940 SI WA 06:00:00 NR -15.24 126.15 0 0 ______P__P____ -1 -15.15 126.34 -14.83 125.55 TC 8 271
1940 SI WA 09:00:00 NR -15.22 125.74 0 0 ______P__P____ -1 -15.12 126.01 -14.83 125.29 TC 8 273
1940 SI WA 11:00:00 NR -15.20 125.45 10 0 ______P__P____ -1 -15.10 125.79 -14.84 125.13 TC 9 275
1940 SI WA 12:00:00 NR -15.18 125.28 0 0 ______P__P____ -1 -15.10 125.68 -14.84 125.06 TC 10 278
1940 SI WA 15:00:00 NR -15.11 124.78 11 11 ______P__P____ -1 -15.09 125.34 -14.89 124.83 TC 10 278
1940 SI WA 17:00:00 NR -15.06 124.44 bom 44 44 ______O__P____ -1 -15.10 125.10 -14.93 124.69 TC 10 278
1940 SI WA 18:00:00 NR -15.04 124.27 58 58 ______P__P____ -1 -15.10 124.97 -14.96 124.62 TC 9 276
1940 SI WA 21:00:00 NR -15.00 123.79 93 93 ______P__P____ -1 -15.11 124.59 -15.06 124.41 TC 9 272
1940 SI WA 23:00:00 NR -15.02 123.52 117 111 ______P__P____ -1 -15.14 124.33 -15.15 124.27 TC 6 257
1940 SI WA 1940-03-27 00:00:00 TS -15.07 123.49 111 111 ______P__O____ -1 -15.16 124.21 -15.20 124.20 TC 4 207
1940 SI WA 01:00:00 TS -15.13 123.46 bom 111 105 ______O__P____ -1 -15.20 124.10 -15.25 124.10 TC 5 216
1940 SI WA 03:00:00 TS -15.27 123.34 109 94 ______P__P____ -1 -15.30 123.89 -15.37 123.91 TC 6 216
1940 SI WA 06:00:00 TS -15.51 123.17 94 78 ______P__P____ -1 -15.52 123.61 -15.56 123.63 TC 6 212
1940 SI WA 09:00:00 TS -15.79 123.00 78 55 ______P__P____ -1 -15.79 123.36 -15.79 123.37 TC 6 208
1940 SI WA 11:00:00 TS -15.98 122.91 55 44 ______P__P____ -1 -15.99 123.21 -15.95 123.21 TC 6 206
1940 SI WA 12:00:00 TS -16.07 122.86 44 35 ______P__P____ -1 -16.09 123.14 -16.04 123.13 TC 6 207
1940 SI WA 14:00:00 TS -16.25 122.77 992 bom 35 24 ______O__P____ -1 -16.30 123.00 992 -16.22 122.98 TC 6 205
1940 SI WA 15:00:00 TS -16.33 122.73 30 15 ______P__P____ -1 -16.38 122.93 991 -16.32 122.91 TC 6 202
1940 SI WA 18:00:00 TS -16.59 122.63 15 0 ______P__P____ -1 -16.63 122.71 990 -16.62 122.71 TC 6 199
1940 SI WA 21:00:00 TS -16.88 122.54 0 0 ______P__P____ -1 -16.91 122.52 989 -16.95 122.54 TC 6 195
1940 SI WA 23:00:00 TS -17.11 122.48 0 0 ______P__P____ -1 -17.14 122.41 989 -17.18 122.44 TC 7 193
1940 SI WA 1940-03-28 00:00:00 TS -17.23 122.46 0 0 ______P__O____ -1 -17.26 122.35 988 -17.30 122.40 TC 8 191
1940 SI WA 01:00:00 TS -17.36 122.43 bom 0 0 ______I__P____ -1 -17.40 122.30 988 -17.42 122.36 TC 9 190
1940 SI WA 03:00:00 TS -17.65 122.38 988 bom 0 0 ______O__P____ -1 -17.70 122.20 988 -17.67 122.29 TC 9 190
1940 SI WA 06:00:00 TS -18.07 122.29 10 0 ______P__P____ -1 -18.09 122.00 982 -18.07 122.21 TC 9 191
1940 SI WA 09:00:00 TS -18.50 122.20 0 0 ______P__P____ -1 -18.45 121.80 976 -18.48 122.15 TC 9 191
1940 SI WA 11:00:00 TS -18.79 122.14 972 bom 0 0 ______O__P____ -1 -18.70 121.70 972 4 -18.76 122.13 TC 9 190
1940 SI WA 12:00:00 TS -18.93 122.12 0 0 ______P__P____ -1 -18.83 121.67 -18.91 122.12 TC 9 187
1940 SI WA 15:00:00 TS -19.38 122.07 0 0 ______P__P____ -1 -19.26 121.65 -19.35 122.10 TC 9 186
1940 SI WA 18:00:00 TS -19.82 122.02 0 0 ______P__P____ -1 -19.72 121.72 -19.79 122.09 TC 9 185
1940 SI WA 21:00:00 TS -20.27 122.00 0 0 ______P__P____ -1 -20.22 121.86 -20.24 122.09 TC 9 0
1940 SI WA 23:00:00 TS -20.58 122.02 0 0 ______P__P____ -1 -20.56 121.98 -20.55 122.10 TC 9 174
1940 SI WA 1940-03-29 00:00:00 TS -20.72 122.06 0 0 ______P__O____ -1 -20.73 122.04 -20.70 122.10 TC 10 168
1940 SI WA 01:00:00 NR -20.90 122.10 bom 0 ______O_______ -1 -20.90 122.10 TC 11 167